createdAt,value
2023-02-25T00:16:29.128Z,60.87
2023-02-25T00:18:57.067Z,62.70
2023-02-25T00:21:24.992Z,59.38
2023-02-25T00:23:53.628Z,61.63
2023-02-25T00:26:21.957Z,58.78
2023-02-25T00:28:49.570Z,61.53
2023-02-25T00:31:21.166Z,59.58
2023-02-25T00:33:49.242Z,59.97
2023-02-25T00:36:23.491Z,58.53
2023-02-25T00:38:53.469Z,59.53
2023-02-25T00:41:23.408Z,58.33
2023-02-25T00:43:55.986Z,57.90
2023-02-25T00:46:23.588Z,59.78
2023-02-25T00:48:52.328Z,60.15
2023-02-25T00:51:25.178Z,58.80
2023-02-25T00:53:53.719Z,57.53
2023-02-25T00:56:21.075Z,58.47
2023-02-25T00:58:50.695Z,56.55
2023-02-25T01:01:22.059Z,59.00
2023-02-25T01:03:50.891Z,59.53
2023-02-25T01:06:18.287Z,57.83
2023-02-25T01:08:45.662Z,62.03
2023-02-25T01:11:17.659Z,59.22
2023-02-25T01:13:44.750Z,57.03
2023-02-25T01:16:14.484Z,58.15
2023-02-25T01:18:42.113Z,60.55
2023-02-25T01:21:17.823Z,63.78
2023-02-25T01:23:49.033Z,61.22
2023-02-25T01:26:16.450Z,45.45
2023-02-25T01:28:44.049Z,62.00
2023-02-25T01:31:20.390Z,62.13
2023-02-25T01:33:47.575Z,62.92
2023-02-25T01:36:15.902Z,64.90
2023-02-25T01:38:42.932Z,67.00
2023-02-25T01:41:10.401Z,65.88
2023-02-25T01:43:38.333Z,65.13
2023-02-25T01:46:05.306Z,66.38
2023-02-25T01:48:38.698Z,68.47
2023-02-25T01:51:13.126Z,63.83
2023-02-25T01:53:44.770Z,64.75
2023-02-25T01:56:14.705Z,66.85
2023-02-25T01:58:42.579Z,67.38
2023-02-25T02:01:12.623Z,65.95
2023-02-25T02:03:40.238Z,69.25
2023-02-25T02:06:28.220Z,65.03
2023-02-25T02:08:55.901Z,66.10
2023-02-25T02:11:22.817Z,65.93
2023-02-25T02:13:56.879Z,65.55
2023-02-25T02:16:45.334Z,62.88
2023-02-25T02:19:40.077Z,62.08
2023-02-25T02:22:30.808Z,62.08
2023-02-25T02:25:45.638Z,61.22
2023-02-25T02:28:49.575Z,60.63
2023-02-25T02:31:42.595Z,61.15
2023-02-25T02:34:34.657Z,60.50
2023-02-25T02:37:02.278Z,61.08
2023-02-25T02:39:45.698Z,57.75
2023-02-25T02:42:37.142Z,54.30
2023-02-25T02:45:34.669Z,53.35
2023-02-25T02:48:30.389Z,54.63
2023-02-25T02:51:10.606Z,54.85
2023-02-25T02:53:52.103Z,54.38
2023-02-25T02:56:21.988Z,52.75
2023-02-25T02:59:11.496Z,53.33
2023-02-25T03:02:06.653Z,52.85
2023-02-25T03:04:39.090Z,53.60
2023-02-25T03:07:11.054Z,57.58
2023-02-25T03:09:51.822Z,57.83
2023-02-25T03:12:19.207Z,56.97
2023-02-25T03:14:46.253Z,57.50
2023-02-25T03:17:31.469Z,56.63
2023-02-25T03:20:18.205Z,54.13
2023-02-25T03:22:52.288Z,53.72
2023-02-25T03:25:24.852Z,54.60
2023-02-25T03:27:55.625Z,52.20
2023-02-25T03:30:44.790Z,50.20
2023-02-25T03:33:24.528Z,49.67
2023-02-25T03:35:55.031Z,46.45
2023-02-25T03:38:27.338Z,48.10
2023-02-25T03:40:56.988Z,47.17
2023-02-25T03:43:31.189Z,34.05
2023-02-25T03:46:00.260Z,48.00
2023-02-25T03:48:31.438Z,49.00
2023-02-25T03:53:32.810Z,46.13
2023-02-25T03:56:23.129Z,47.70
2023-02-25T03:58:50.387Z,50.15
2023-02-25T04:01:29.330Z,49.67
2023-02-25T04:03:56.522Z,55.60
2023-02-25T04:06:25.407Z,52.58
2023-02-25T04:08:53.116Z,49.67
2023-02-25T04:11:20.417Z,52.22
2023-02-25T04:13:48.253Z,53.72
2023-02-25T04:16:15.895Z,53.20
2023-02-25T04:18:42.938Z,51.92
2023-02-25T04:21:10.286Z,53.13
2023-02-25T04:23:37.415Z,52.15
2023-02-25T04:26:07.571Z,52.00
2023-02-25T04:28:34.552Z,52.72
2023-02-25T04:31:01.651Z,53.10
2023-02-25T04:33:28.691Z,53.13
2023-02-25T04:35:58.067Z,52.90
2023-02-25T04:38:25.225Z,50.25
2023-02-25T04:40:52.680Z,57.42
2023-02-25T04:43:19.688Z,55.63
2023-02-25T04:45:47.045Z,54.97
2023-02-25T04:48:14.114Z,55.17
2023-02-25T04:50:41.298Z,57.30
2023-02-25T04:53:08.325Z,57.00
2023-02-25T04:55:36.904Z,57.13
2023-02-25T04:58:03.976Z,54.47
2023-02-25T05:00:35.315Z,56.83
2023-02-25T05:03:02.306Z,55.45
2023-02-25T05:05:29.533Z,54.00
2023-02-25T05:07:56.615Z,57.58
2023-02-25T05:10:23.698Z,60.30
2023-02-25T05:12:50.691Z,59.03
2023-02-25T05:15:19.212Z,59.67
2023-02-25T05:17:46.185Z,58.30
2023-02-25T05:20:13.509Z,58.97
2023-02-25T05:22:42.043Z,56.13
2023-02-25T05:25:10.517Z,55.63
2023-02-25T05:27:37.770Z,58.30
2023-02-25T05:30:05.295Z,55.78
2023-02-25T05:32:32.390Z,56.50
2023-02-25T05:34:59.440Z,54.30
2023-02-25T05:37:26.745Z,56.92
2023-02-25T05:39:53.605Z,56.80
2023-02-25T05:42:21.000Z,57.63
2023-02-25T05:44:47.830Z,58.55
2023-02-25T05:47:15.288Z,56.95
2023-02-25T05:49:42.923Z,57.45
2023-02-25T05:52:11.020Z,57.60
2023-02-25T05:54:38.232Z,56.80
2023-02-25T05:57:05.827Z,57.78
2023-02-25T05:59:33.080Z,54.22
2023-02-25T06:02:00.276Z,56.03
2023-02-25T06:04:27.328Z,56.33
2023-02-25T06:06:54.496Z,55.78
2023-02-25T06:09:21.880Z,57.22
2023-02-25T06:11:49.530Z,56.83
2023-02-25T06:14:16.692Z,58.42
2023-02-25T06:16:44.774Z,57.17
2023-02-25T06:19:12.420Z,56.90
2023-02-25T06:21:39.964Z,55.20
2023-02-25T06:24:07.323Z,55.20
2023-02-25T06:26:35.608Z,54.47
2023-02-25T06:29:02.826Z,57.40
2023-02-25T06:31:29.772Z,55.15
2023-02-25T06:33:56.922Z,55.10
2023-02-25T06:36:44.200Z,52.85
2023-02-25T06:39:14.299Z,49.97
2023-02-25T06:41:41.216Z,51.95
2023-02-25T06:44:08.410Z,52.35
2023-02-25T06:46:37.061Z,53.65
2023-02-25T06:49:04.139Z,50.92
2023-02-25T06:51:31.145Z,49.47
2023-02-25T06:53:58.094Z,49.45
2023-02-25T06:56:26.862Z,50.40
2023-02-25T06:58:54.147Z,49.97
2023-02-25T07:01:21.430Z,48.83
2023-02-25T07:03:49.035Z,47.65
2023-02-25T07:06:16.109Z,47.03
2023-02-25T07:08:43.336Z,45.97
2023-02-25T07:11:17.048Z,44.35
2023-02-25T07:13:47.811Z,43.00
2023-02-25T07:16:15.904Z,44.08
2023-02-25T07:18:43.907Z,43.25
2023-02-25T07:24:47.108Z,40.33
2023-02-25T07:31:20.106Z,39.67
2023-02-25T07:33:47.734Z,42.72
2023-02-25T07:36:15.931Z,42.13
2023-02-25T07:38:43.817Z,41.85
2023-02-25T07:41:19.218Z,39.17
2023-02-25T07:57:11.279Z,35.22
2023-02-25T08:05:13.794Z,33.67
2023-02-25T08:07:43.807Z,34.25
2023-02-25T08:10:12.942Z,34.28
2023-02-25T08:12:40.234Z,35.17
2023-02-25T08:15:08.207Z,35.47
2023-02-25T08:17:35.558Z,33.75
2023-02-25T08:20:06.153Z,31.90
2023-02-25T08:22:33.391Z,40.88
2023-02-25T08:25:00.816Z,59.83
2023-02-25T08:27:28.230Z,47.05
2023-02-25T08:30:00.936Z,37.60
2023-02-25T08:32:32.418Z,29.55
2023-02-25T08:35:02.318Z,30.98
2023-02-25T08:37:43.566Z,29.63
2023-02-25T08:40:11.550Z,29.02
2023-02-25T08:42:49.021Z,27.00
2023-02-25T08:45:20.304Z,27.58
2023-02-25T08:47:47.269Z,28.20
2023-02-25T08:50:14.655Z,26.30
2023-02-25T08:52:42.456Z,26.65
2023-02-25T08:55:11.147Z,25.27
2023-02-25T08:57:38.214Z,23.63
2023-02-25T09:00:07.218Z,24.63
2023-02-25T09:02:35.161Z,24.80
2023-02-25T09:05:02.507Z,25.90
2023-02-25T09:07:29.575Z,25.27
2023-02-25T09:09:56.727Z,25.65
2023-02-25T09:12:24.882Z,25.48
2023-02-25T09:14:52.117Z,25.23
2023-02-25T09:17:19.619Z,25.20
2023-02-25T09:19:46.688Z,26.23
2023-02-25T09:22:13.809Z,24.98
2023-02-25T09:24:41.081Z,27.00
2023-02-25T09:27:08.324Z,26.35
2023-02-25T09:29:37.454Z,31.30
2023-02-25T09:32:06.338Z,25.00
2023-02-25T09:34:36.269Z,29.85
2023-02-25T09:37:09.758Z,28.80
2023-02-25T09:39:36.908Z,27.02
2023-02-25T09:42:19.576Z,26.42
2023-02-25T09:44:49.433Z,28.25
2023-02-25T09:47:55.261Z,27.92
2023-02-25T09:50:33.040Z,27.55
2023-02-25T09:53:18.867Z,27.90
2023-02-25T09:55:51.651Z,27.98
2023-02-25T09:58:48.313Z,30.05
2023-02-25T10:01:42.610Z,28.95
2023-02-25T10:04:24.930Z,27.83
2023-02-25T10:06:53.232Z,25.60
2023-02-25T10:09:45.499Z,26.63
2023-02-25T10:12:36.872Z,26.73
2023-02-25T10:15:52.795Z,23.88
2023-02-25T10:18:38.560Z,22.90
2023-02-25T10:21:30.806Z,22.30
2023-02-25T10:24:09.788Z,21.30
2023-02-25T10:26:54.400Z,23.05
2023-02-25T10:29:46.505Z,20.67
2023-02-25T10:34:44.409Z,18.05
2023-02-25T10:37:20.365Z,18.75
2023-02-25T10:39:53.073Z,17.50
2023-02-25T10:42:20.204Z,20.05
2023-02-25T10:44:47.178Z,17.45
2023-02-25T10:47:21.664Z,18.92
2023-02-25T10:50:10.461Z,17.60
2023-02-25T10:52:59.417Z,16.75
2023-02-25T10:55:29.609Z,16.42
2023-02-25T10:57:57.868Z,16.83
2023-02-25T11:00:30.354Z,16.95
2023-02-25T11:03:01.704Z,17.88
2023-02-25T11:05:31.995Z,16.15
2023-02-25T11:08:00.271Z,16.02
2023-02-25T11:10:27.377Z,15.57
2023-02-25T11:12:58.134Z,17.15
2023-02-25T11:15:45.726Z,14.73
2023-02-25T11:18:19.616Z,13.38
2023-02-25T11:20:55.251Z,17.73
2023-02-25T11:23:55.305Z,15.68
2023-02-25T11:26:31.472Z,15.77
2023-02-25T11:29:11.124Z,14.93
2023-02-25T11:31:57.993Z,12.60
2023-02-25T11:34:32.026Z,12.98
2023-02-25T11:37:38.527Z,12.70
2023-02-25T11:40:26.159Z,12.35
2023-02-25T11:43:08.381Z,12.50
2023-02-25T11:55:18.127Z,11.60
2023-02-25T11:58:27.282Z,11.45
2023-02-25T12:01:32.531Z,11.32
2023-02-25T12:04:15.558Z,12.05
2023-02-25T12:06:53.117Z,12.15
2023-02-25T12:13:24.956Z,10.90
2023-02-25T12:16:36.162Z,10.10
2023-02-25T12:19:28.398Z,10.68
2023-02-25T12:22:47.980Z,9.00
2023-02-25T12:40:29.686Z,10.13
2023-02-25T12:58:18.445Z,10.45
2023-02-25T13:04:46.802Z,9.98
2023-02-25T13:07:14.557Z,10.63
2023-02-25T13:10:46.038Z,9.50
2023-02-25T13:13:54.240Z,9.38
2023-02-25T13:17:04.150Z,10.38
2023-02-25T13:20:22.725Z,9.70
2023-02-25T13:23:12.016Z,10.10
2023-02-25T13:26:18.343Z,9.65
2023-02-25T13:29:46.536Z,8.65
2023-02-25T13:32:39.989Z,8.32
2023-02-25T13:35:52.668Z,7.80
2023-02-25T13:42:39.334Z,7.95
2023-02-25T13:45:47.067Z,8.20
2023-02-25T13:49:12.659Z,8.82
2023-02-25T13:53:18.923Z,9.63
2023-02-25T13:56:05.096Z,8.48
2023-02-25T14:05:44.492Z,10.20
2023-02-25T14:15:39.834Z,9.82
2023-02-25T14:19:06.544Z,10.32
2023-02-25T14:22:26.950Z,11.98
2023-02-25T14:25:34.145Z,10.70
2023-02-25T14:28:44.287Z,11.05
2023-02-25T14:45:52.433Z,11.20
2023-02-25T14:48:54.125Z,12.73
2023-02-25T14:51:37.890Z,12.50
2023-02-25T15:01:14.482Z,12.38
2023-02-25T15:04:21.679Z,13.25
2023-02-25T15:07:05.435Z,13.35
2023-02-25T15:13:22.199Z,13.45
2023-02-25T15:16:20.259Z,14.02
2023-02-25T15:19:06.635Z,13.95
2023-02-25T15:22:13.911Z,14.25
2023-02-25T15:24:42.792Z,14.23
2023-02-25T15:27:41.943Z,14.95
2023-02-25T15:30:13.304Z,14.63
2023-02-25T15:33:01.820Z,14.50
2023-02-25T15:35:56.072Z,15.32
2023-02-25T15:38:43.801Z,15.77
2023-02-25T15:41:34.641Z,14.70
2023-02-25T15:44:09.149Z,15.98
2023-02-25T15:46:40.772Z,14.98
2023-02-25T15:49:08.038Z,14.25
2023-02-25T15:51:49.760Z,15.93
2023-02-25T15:55:00.111Z,16.35
2023-02-25T15:57:30.356Z,16.38
2023-02-25T16:00:00.398Z,22.27
2023-02-25T16:02:30.136Z,17.40
2023-02-25T16:05:09.631Z,17.35
2023-02-25T16:08:38.798Z,17.08
2023-02-25T16:11:13.522Z,16.92
2023-02-25T16:13:42.553Z,16.10
2023-02-25T16:16:11.907Z,17.90
2023-02-25T16:18:45.314Z,17.42
2023-02-25T16:21:15.726Z,17.75
2023-02-25T16:23:44.482Z,17.98
2023-02-25T16:26:36.467Z,18.98
2023-02-25T16:32:49.435Z,18.42
2023-02-25T16:35:28.260Z,17.63
2023-02-25T16:38:17.412Z,18.33
2023-02-25T16:40:45.224Z,16.77
2023-02-25T16:43:38.310Z,18.27
2023-02-25T16:46:35.905Z,20.13
2023-02-25T16:49:23.465Z,20.20
2023-02-25T16:55:16.027Z,21.38
2023-02-25T16:58:22.967Z,19.80
2023-02-25T17:01:03.928Z,22.15
2023-02-25T17:03:45.631Z,38.85
2023-02-25T17:06:18.876Z,30.92
2023-02-25T17:08:47.942Z,33.22
2023-02-25T17:11:25.502Z,37.80
2023-02-25T17:13:56.050Z,36.50
2023-02-25T17:16:32.331Z,35.55
2023-02-25T17:19:09.646Z,37.13
2023-02-25T17:21:40.153Z,36.75
2023-02-25T17:24:12.594Z,35.65
2023-02-25T17:26:43.814Z,37.03
2023-02-25T17:29:14.276Z,38.35
2023-02-25T17:31:48.359Z,37.97
2023-02-25T17:34:35.158Z,39.05
2023-02-25T17:37:12.436Z,39.75
2023-02-25T17:39:45.301Z,38.10
2023-02-25T17:42:37.031Z,37.47
2023-02-25T17:45:27.078Z,38.13
2023-02-25T17:47:54.056Z,37.47
2023-02-25T17:50:32.515Z,38.47
2023-02-25T17:53:00.106Z,38.65
2023-02-25T17:55:33.747Z,38.17
2023-02-25T17:58:02.627Z,36.50
2023-02-25T18:00:35.256Z,37.08
2023-02-25T18:03:25.360Z,37.35
2023-02-25T18:05:59.015Z,38.45
2023-02-25T18:08:31.306Z,43.28
2023-02-25T18:11:25.024Z,43.92
2023-02-25T18:13:56.106Z,41.45
2023-02-25T18:16:42.478Z,42.60
2023-02-25T18:19:46.073Z,42.85
2023-02-25T18:22:41.269Z,42.55
2023-02-25T18:25:33.609Z,43.63
2023-02-25T18:28:32.575Z,40.67
2023-02-25T18:31:00.494Z,37.10
2023-02-25T18:33:30.468Z,36.45
2023-02-25T18:36:06.254Z,33.15
2023-02-25T18:38:40.360Z,32.63
2023-02-25T18:44:10.619Z,31.80
2023-02-25T18:46:43.279Z,31.35
2023-02-25T18:49:11.066Z,32.10
2023-02-25T18:51:41.901Z,31.73
2023-02-25T18:54:18.729Z,33.15
2023-02-25T18:56:48.440Z,33.83
2023-02-25T19:00:12.392Z,33.05
2023-02-25T19:02:49.342Z,31.95
2023-02-25T19:05:23.537Z,31.48
2023-02-25T19:07:56.026Z,32.42
2023-02-25T19:13:56.027Z,30.90
2023-02-25T19:16:23.931Z,32.28
2023-02-25T19:18:52.887Z,36.03
2023-02-25T19:21:24.523Z,42.28
2023-02-25T19:23:57.104Z,41.08
2023-02-25T19:26:29.464Z,40.10
2023-02-25T19:29:00.825Z,40.88
2023-02-25T19:31:37.866Z,40.70
2023-02-25T19:34:04.859Z,40.15
2023-02-25T19:36:32.414Z,37.60
2023-02-25T19:38:59.496Z,37.85
2023-02-25T19:41:39.305Z,36.65
2023-02-25T19:44:06.365Z,38.58
2023-02-25T19:46:36.197Z,36.10
2023-02-25T19:49:09.045Z,38.30
2023-02-25T19:51:37.471Z,38.40
2023-02-25T19:54:25.093Z,37.47
2023-02-25T19:56:54.991Z,36.38
2023-02-25T19:59:22.243Z,36.03
2023-02-25T20:01:51.669Z,36.05
2023-02-25T20:04:23.156Z,36.80
2023-02-25T20:06:50.752Z,36.72
2023-02-25T20:09:19.845Z,38.55
2023-02-25T20:14:51.082Z,33.85
2023-02-25T20:17:42.135Z,39.67
2023-02-25T20:20:19.175Z,38.20
2023-02-25T20:22:49.211Z,37.03
2023-02-25T20:25:18.556Z,35.05
2023-02-25T20:27:48.060Z,34.63
2023-02-25T20:30:24.375Z,35.72
2023-02-25T20:33:04.822Z,35.45
2023-02-25T20:35:39.115Z,36.45
2023-02-25T20:38:18.280Z,37.97
2023-02-25T20:40:46.493Z,36.90
2023-02-25T20:43:18.832Z,36.80
2023-02-25T20:48:42.328Z,37.00
2023-02-25T20:51:10.487Z,37.20
2023-02-25T20:53:41.710Z,35.28
2023-02-25T20:56:22.859Z,34.28
2023-02-25T20:58:56.892Z,34.38
2023-02-25T21:01:37.254Z,33.88
2023-02-25T21:04:07.929Z,35.08
2023-02-25T21:06:40.270Z,44.42
2023-02-25T21:09:08.712Z,40.05
2023-02-25T21:11:47.335Z,34.25
2023-02-25T21:14:17.352Z,32.70
2023-02-25T21:16:47.362Z,30.13
2023-02-25T21:19:14.867Z,29.85
2023-02-25T21:22:07.385Z,31.20
2023-02-25T21:24:35.257Z,29.35
2023-02-25T21:40:00.661Z,38.55
2023-02-25T21:42:28.530Z,40.05
2023-02-25T21:44:57.078Z,38.22
2023-02-25T21:47:30.365Z,40.55
2023-02-25T21:49:59.601Z,38.28
2023-02-25T21:52:30.491Z,32.08
2023-02-25T21:57:45.151Z,28.60
2023-02-25T22:00:23.955Z,28.65
2023-02-25T22:03:59.631Z,30.80
2023-02-25T22:06:34.832Z,29.65
2023-02-25T22:09:03.289Z,30.67
2023-02-25T22:11:46.404Z,30.42
2023-02-25T22:14:27.242Z,32.10
2023-02-25T22:16:54.395Z,30.67
2023-02-25T22:19:24.085Z,29.63
2023-02-25T22:21:51.361Z,30.83
2023-02-25T22:24:18.591Z,30.75
2023-02-25T22:26:47.922Z,31.23
2023-02-25T22:29:15.028Z,31.75
2023-02-25T22:31:42.529Z,31.83
2023-02-25T22:34:10.652Z,31.58
2023-02-25T22:36:59.082Z,31.90
2023-02-25T22:39:26.467Z,33.03
2023-02-25T22:41:53.635Z,33.63
2023-02-25T22:44:22.097Z,38.45
2023-02-25T22:46:50.406Z,40.03
2023-02-25T22:49:22.989Z,41.83
2023-02-25T22:51:54.468Z,45.88
2023-02-25T22:54:21.775Z,43.30
2023-02-25T22:56:50.063Z,44.85
2023-02-25T22:59:17.915Z,44.25
2023-02-25T23:01:45.064Z,44.50
2023-02-25T23:04:12.235Z,43.85
2023-02-25T23:06:44.370Z,44.10
2023-02-25T23:09:13.721Z,45.22
2023-02-25T23:11:53.420Z,45.33
2023-02-25T23:14:20.889Z,43.90
2023-02-25T23:16:48.019Z,43.47
2023-02-25T23:19:18.351Z,42.63
2023-02-25T23:21:53.377Z,42.38
2023-02-25T23:24:20.533Z,42.28
2023-02-25T23:26:50.812Z,41.53
2023-02-25T23:29:18.351Z,42.03
2023-02-25T23:31:47.348Z,40.58
2023-02-25T23:34:19.315Z,41.47
2023-02-25T23:36:47.745Z,36.85
2023-02-25T23:39:42.176Z,33.75
2023-02-25T23:42:10.387Z,33.22
2023-02-25T23:44:50.237Z,31.27
2023-02-25T23:47:36.167Z,30.42
2023-02-25T23:50:07.977Z,29.92
2023-02-25T23:55:28.831Z,30.73
2023-02-25T23:58:02.035Z,29.27
